Time;durP1;ratioP1;P1;durP2;ratioP2;P2;SDS_P1;SDS_P2;PMS_P1;PMS_P2;Temp;Humidity;BMP_temperature;BMP_pressure;BME280_temperature;BME280_humidity;BME280_pressure;Samples;Min_cycle;Max_cycle;Signal;HPM_P1;HPM_P2
2021/05/30 00:00:36;;;;;;;0.88;0.60;;;18.60;65.40;;;;;;5037872;28;20112;-85
2021/05/30 00:03:02;;;;;;;1.10;0.68;;;18.60;65.40;;;;;;5056089;28;20087;-85
2021/05/30 00:05:28;;;;;;;0.80;0.60;;;18.60;65.50;;;;;;5042327;28;20030;-84
2021/05/30 00:07:55;;;;;;;1.00;0.60;;;18.60;65.50;;;;;;5036027;28;20059;-85
2021/05/30 00:10:34;;;;;;;;;;;;;;;;;;;;;
2021/05/30 00:13:00;;;;;;;0.90;0.70;;;18.70;65.40;;;;;;5055246;28;20025;-85
2021/05/30 00:15:26;;;;;;;0.90;0.63;;;18.60;65.50;;;;;;5052157;28;20454;-84
2021/05/30 00:17:52;;;;;;;1.10;0.70;;;18.60;65.50;;;;;;5036288;28;20024;-84
2021/05/30 00:20:17;;;;;;;0.82;0.70;;;18.60;65.40;;;;;;5048019;28;20125;-85
2021/05/30 00:22:43;;;;;;;1.25;0.85;;;18.60;65.60;;;;;;5056094;28;20024;-85
2021/05/30 00:25:10;;;;;;;0.80;0.57;;;18.60;65.80;;;;;;5051205;28;20048;-85
2021/05/30 00:27:39;;;;;;;0.68;0.55;;;18.60;65.70;;;;;;5050825;28;20025;-85
2021/05/30 00:30:06;;;;;;;0.95;0.70;;;18.60;65.70;;;;;;5075601;28;20371;-85
2021/05/30 00:32:31;;;;;;;0.80;0.60;;;18.50;66.00;;;;;;5068306;28;20025;-85
2021/05/30 00:34:57;;;;;;;0.90;0.70;;;18.60;65.80;;;;;;5055868;28;20495;-85
2021/05/30 00:37:23;;;;;;;1.02;0.65;;;18.50;65.90;;;;;;5055547;28;20560;-85
2021/05/30 00:39:48;;;;;;;1.00;0.60;;;18.50;66.10;;;;;;5055742;28;20402;-85
2021/05/30 00:42:14;;;;;;;0.77;0.60;;;18.40;65.80;;;;;;5049397;28;20160;-85
2021/05/30 00:44:42;;;;;;;0.90;0.68;;;18.60;65.60;;;;;;5035855;28;20029;-85
2021/05/30 00:47:08;;;;;;;0.95;0.60;;;18.50;66.00;;;;;;5035372;28;20107;-85
2021/05/30 00:49:34;;;;;;;0.90;0.70;;;18.60;66.00;;;;;;5035355;28;20029;-85
2021/05/30 00:52:03;;;;;;;0.95;0.65;;;18.40;66.00;;;;;;5035855;28;20108;-85
2021/05/30 00:54:29;;;;;;;1.00;0.65;;;18.40;66.20;;;;;;5035331;28;20387;-85
2021/05/30 00:56:55;;;;;;;0.90;0.70;;;18.40;66.20;;;;;;5035668;28;20017;-85
2021/05/30 00:59:20;;;;;;;1.20;0.80;;;18.40;66.30;;;;;;5035228;28;20036;-84
2021/05/30 01:01:49;;;;;;;1.20;0.75;;;18.40;66.10;;;;;;5035645;28;20109;-85
2021/05/30 01:04:14;;;;;;;0.93;0.60;;;18.30;66.40;;;;;;5035203;28;20372;-84
2021/05/30 01:06:41;;;;;;;0.95;0.70;;;18.20;66.70;;;;;;5035163;28;20031;-85
2021/05/30 01:09:07;;;;;;;0.70;0.60;;;18.20;67.00;;;;;;5035790;28;20036;-85
2021/05/30 01:11:34;;;;;;;1.23;0.75;;;18.30;66.80;;;;;;5035092;28;20085;-85
2021/05/30 01:14:00;;;;;;;1.73;0.70;;;18.30;66.50;;;;;;5035470;28;20053;-85
2021/05/30 01:16:27;;;;;;;1.13;0.70;;;18.30;66.50;;;;;;5035105;28;20026;-86
2021/05/30 01:18:57;;;;;;;0.80;0.60;;;18.30;66.30;;;;;;5035561;28;20029;-84
2021/05/30 01:21:23;;;;;;;0.98;0.60;;;18.30;66.10;;;;;;5034965;28;20030;-84
2021/05/30 01:23:53;;;;;;;0.80;0.60;;;18.30;66.20;;;;;;5035671;28;20452;-85
2021/05/30 01:26:20;;;;;;;0.88;0.70;;;18.30;66.00;;;;;;5058510;28;20017;-85
2021/05/30 01:28:46;;;;;;;0.70;0.60;;;18.30;66.20;;;;;;5064398;28;20033;-85
2021/05/30 01:31:12;;;;;;;1.10;0.80;;;18.30;66.00;;;;;;5039200;28;20029;-85
2021/05/30 01:33:38;;;;;;;0.93;0.70;;;18.20;66.00;;;;;;5055286;28;20441;-85
2021/05/30 01:36:04;;;;;;;1.00;0.70;;;18.20;66.30;;;;;;5059655;28;20379;-85
2021/05/30 01:38:30;;;;;;;0.88;0.60;;;18.30;65.90;;;;;;5059118;28;20029;-85
2021/05/30 01:40:55;;;;;;;0.82;0.60;;;18.30;65.60;;;;;;5058891;28;20108;-85
2021/05/30 01:43:21;;;;;;;0.68;0.60;;;18.30;65.60;;;;;;5058835;28;20407;-85
2021/05/30 01:45:47;;;;;;;1.05;0.60;;;18.30;65.90;;;;;;5058929;28;20032;-86
2021/05/30 01:48:13;;;;;;;0.93;0.70;;;18.30;66.00;;;;;;5047941;28;20060;-85
2021/05/30 01:50:38;;;;;;;1.92;0.80;;;18.20;65.80;;;;;;5038784;28;20036;-86
2021/05/30 01:53:10;;;;;;;0.90;0.57;;;18.30;66.00;;;;;;5054339;28;20025;-86
2021/05/30 01:58:23;;;;;;;0.85;0.65;;;18.20;65.90;;;;;;5038670;28;20454;-85
2021/05/30 02:00:49;;;;;;;0.82;0.60;;;18.30;65.80;;;;;;5037485;28;20033;-85
2021/05/30 02:03:16;;;;;;;1.05;0.75;;;18.30;66.20;;;;;;5038216;28;20033;-86
2021/05/30 02:05:46;;;;;;;0.95;0.68;;;18.30;65.60;;;;;;5038788;28;20034;-85
2021/05/30 02:08:13;;;;;;;0.90;0.73;;;18.30;65.30;;;;;;5047610;28;20039;-86
2021/05/30 02:10:39;;;;;;;0.77;0.60;;;18.30;65.60;;;;;;5059047;28;20037;-86
2021/05/30 02:13:06;;;;;;;0.90;0.70;;;18.30;65.50;;;;;;5058099;28;20025;-86
2021/05/30 02:15:33;;;;;;;0.85;0.70;;;18.30;65.90;;;;;;5057267;28;20020;-85
2021/05/30 02:17:59;;;;;;;0.90;0.70;;;18.20;65.70;;;;;;5036890;28;20036;-86
2021/05/30 02:20:36;;;;;;;0.90;0.70;;;18.20;65.50;;;;;;5037746;28;20100;-85
2021/05/30 02:23:03;;;;;;;1.02;0.80;;;18.20;65.70;;;;;;5038482;28;20029;-86
2021/05/30 02:25:29;;;;;;;0.82;0.68;;;18.20;65.80;;;;;;5050736;28;20523;-86
2021/05/30 02:27:55;;;;;;;0.75;0.60;;;18.20;66.10;;;;;;5058843;28;20094;-86
2021/05/30 02:30:21;;;;;;;0.75;0.60;;;18.20;65.70;;;;;;5078043;28;20122;-85
2021/05/30 02:32:47;;;;;;;0.77;0.57;;;18.20;65.60;;;;;;5062236;28;20036;-86
2021/05/30 02:35:13;;;;;;;1.10;0.70;;;18.20;65.90;;;;;;5037724;28;20487;-85
2021/05/30 02:37:39;;;;;;;0.77;0.60;;;18.20;65.40;;;;;;5053224;28;20052;-85
2021/05/30 02:40:06;;;;;;;1.20;0.77;;;18.20;65.50;;;;;;5038671;28;20022;-85
2021/05/30 02:42:32;;;;;;;0.88;0.60;;;18.10;65.40;;;;;;5049218;28;20507;-86
2021/05/30 02:44:58;;;;;;;1.02;0.63;;;18.10;65.50;;;;;;5058821;28;20021;-85
2021/05/30 02:47:24;;;;;;;0.93;0.60;;;18.10;65.50;;;;;;5056052;28;20028;-86
2021/05/30 02:49:52;;;;;;;0.95;0.65;;;18.00;65.20;;;;;;5053185;28;20038;-85
2021/05/30 02:52:18;;;;;;;0.95;0.77;;;18.10;65.30;;;;;;5037443;28;20025;-86
2021/05/30 02:54:43;;;;;;;0.90;0.65;;;18.10;64.90;;;;;;5037480;28;20036;-85
2021/05/30 02:57:09;;;;;;;0.90;0.70;;;18.10;64.50;;;;;;5041668;28;20036;-85
2021/05/30 02:59:35;;;;;;;0.60;0.50;;;18.00;64.30;;;;;;5057198;28;20417;-85
2021/05/30 03:02:00;;;;;;;0.70;0.50;;;18.00;64.60;;;;;;5058283;28;20032;-85
2021/05/30 03:04:26;;;;;;;0.90;0.50;;;18.00;64.20;;;;;;5056943;28;20111;-86
2021/05/30 03:06:52;;;;;;;1.00;0.60;;;18.00;63.90;;;;;;5051062;28;20038;-85
2021/05/30 03:09:17;;;;;;;1.00;0.60;;;18.00;64.00;;;;;;5037516;28;20033;-86
2021/05/30 03:11:43;;;;;;;0.88;0.60;;;18.10;63.80;;;;;;5036686;28;20038;-85
2021/05/30 03:14:09;;;;;;;0.77;0.60;;;18.00;63.40;;;;;;5037805;28;20025;-85
2021/05/30 03:16:34;;;;;;;0.60;0.50;;;18.00;63.40;;;;;;5035578;28;20025;-85
2021/05/30 03:19:00;;;;;;;1.00;0.60;;;18.00;63.40;;;;;;5037754;28;20049;-86
2021/05/30 03:21:26;;;;;;;0.90;0.68;;;18.00;63.40;;;;;;5036593;28;20075;-85
2021/05/30 03:23:51;;;;;;;0.60;0.50;;;18.00;63.40;;;;;;5036981;28;20480;-85
2021/05/30 03:26:17;;;;;;;1.02;0.73;;;17.90;63.60;;;;;;5051371;28;20033;-85
2021/05/30 03:28:43;;;;;;;0.77;0.45;;;17.80;63.30;;;;;;5069845;28;20081;-85
2021/05/30 03:31:08;;;;;;;1.25;0.70;;;17.80;63.60;;;;;;5066000;28;20025;-85
2021/05/30 03:33:34;;;;;;;0.70;0.50;;;17.80;63.40;;;;;;5036373;28;20419;-85
2021/05/30 03:36:03;;;;;;;0.70;0.50;;;17.80;63.00;;;;;;5037891;28;20052;-86
2021/05/30 03:38:31;;;;;;;0.80;0.60;;;17.80;63.50;;;;;;5036317;28;20071;-86
2021/05/30 03:41:07;;;;;;;0.80;0.60;;;17.80;62.90;;;;;;5036726;28;20050;-86
2021/05/30 03:43:34;;;;;;;0.80;0.52;;;17.80;63.10;;;;;;5036818;28;20377;-85
2021/05/30 03:46:00;;;;;;;0.70;0.50;;;17.80;62.80;;;;;;5036240;28;20029;-86
2021/05/30 03:48:26;;;;;;;0.63;0.50;;;17.80;62.60;;;;;;5036756;28;20434;-86
2021/05/30 03:50:52;;;;;;;0.77;0.60;;;17.70;62.80;;;;;;5036096;28;20108;-85
2021/05/30 03:53:21;;;;;;;1.33;0.50;;;17.70;62.60;;;;;;5036994;28;20040;-86
2021/05/30 03:55:48;;;;;;;0.90;0.60;;;17.70;62.50;;;;;;5034771;28;20029;-85
2021/05/30 03:58:17;;;;;;;0.70;0.50;;;17.70;62.50;;;;;;5035463;28;20071;-86
2021/05/30 04:00:43;;;;;;;0.52;0.40;;;17.80;62.60;;;;;;5036158;28;20037;-85
2021/05/30 04:03:09;;;;;;;0.80;0.60;;;17.70;62.30;;;;;;5034767;28;20025;-85
2021/05/30 04:05:35;;;;;;;0.63;0.40;;;17.80;62.40;;;;;;5036923;28;20029;-85
2021/05/30 04:08:01;;;;;;;0.77;0.50;;;17.70;62.10;;;;;;5036140;28;20044;-85
2021/05/30 04:10:27;;;;;;;0.57;0.40;;;17.70;62.50;;;;;;5036729;28;20083;-86
2021/05/30 04:12:53;;;;;;;0.88;0.50;;;17.70;62.70;;;;;;5034461;28;20025;-85
2021/05/30 04:15:21;;;;;;;0.73;0.50;;;17.70;62.20;;;;;;5036236;28;20025;-85
2021/05/30 04:17:47;;;;;;;0.70;0.50;;;17.70;62.00;;;;;;5053791;28;20036;-85
2021/05/30 04:20:15;;;;;;;0.70;0.50;;;17.70;62.40;;;;;;5055792;28;20372;-86
2021/05/30 04:22:41;;;;;;;0.80;0.50;;;17.70;61.80;;;;;;5037324;28;20026;-85
2021/05/30 04:25:09;;;;;;;1.20;0.60;;;17.70;61.00;;;;;;5035663;28;20510;-85
2021/05/30 04:27:38;;;;;;;0.50;0.40;;;17.70;61.60;;;;;;5050890;28;20096;-85
2021/05/30 04:30:09;;;;;;;0.70;0.47;;;17.70;61.80;;;;;;5058462;28;20127;-86
2021/05/30 04:32:35;;;;;;;0.60;0.40;;;17.80;61.70;;;;;;5056188;28;20017;-84
2021/05/30 04:35:02;;;;;;;0.80;0.40;;;17.70;61.70;;;;;;5041746;28;20029;-85
2021/05/30 04:37:28;;;;;;;1.50;0.50;;;17.70;61.40;;;;;;5035490;28;20021;-85
2021/05/30 04:39:53;;;;;;;0.60;0.43;;;17.70;61.50;;;;;;5034656;28;20040;-85
2021/05/30 04:42:19;;;;;;;1.70;0.50;;;17.70;60.60;;;;;;5040400;28;20081;-84
2021/05/30 04:44:46;;;;;;;0.60;0.43;;;17.80;61.10;;;;;;5053583;28;20111;-85
2021/05/30 04:47:12;;;;;;;1.10;0.50;;;17.70;61.20;;;;;;5055403;28;20680;-85
2021/05/30 04:49:38;;;;;;;0.63;0.40;;;17.60;60.60;;;;;;5039379;28;20033;-85
2021/05/30 04:52:06;;;;;;;0.60;0.40;;;17.60;60.90;;;;;;5035263;28;20027;-85
2021/05/30 04:54:32;;;;;;;0.93;0.52;;;17.60;60.50;;;;;;5035459;28;20549;-85
2021/05/30 04:56:58;;;;;;;0.60;0.40;;;17.60;60.70;;;;;;5033748;28;20439;-85
2021/05/30 04:59:24;;;;;;;0.85;0.50;;;17.60;60.70;;;;;;5053852;28;20402;-85
2021/05/30 05:01:50;;;;;;;0.80;0.50;;;17.60;60.50;;;;;;5050924;28;20033;-85
2021/05/30 05:04:16;;;;;;;0.70;0.50;;;17.60;60.70;;;;;;5057048;28;20036;-85
2021/05/30 05:06:42;;;;;;;0.73;0.40;;;17.60;60.20;;;;;;5055588;28;20029;-85
2021/05/30 05:09:08;;;;;;;0.52;0.40;;;17.50;60.20;;;;;;5056993;28;20861;-85
2021/05/30 05:11:34;;;;;;;0.60;0.40;;;17.50;60.70;;;;;;5057113;28;20522;-85
2021/05/30 05:14:00;;;;;;;0.60;0.40;;;17.50;60.50;;;;;;5057033;28;20055;-85
2021/05/30 05:16:26;;;;;;;0.90;0.50;;;17.50;60.70;;;;;;5061556;28;20403;-85
2021/05/30 05:18:52;;;;;;;1.63;0.50;;;17.70;60.10;;;;;;5057896;28;20032;-85
2021/05/30 05:21:18;;;;;;;0.57;0.40;;;17.70;59.80;;;;;;5058205;28;20025;-86
2021/05/30 05:23:44;;;;;;;0.60;0.40;;;17.70;59.80;;;;;;5056116;28;20028;-86
2021/05/30 05:26:09;;;;;;;1.05;0.40;;;17.80;59.50;;;;;;5055625;28;20030;-85
2021/05/30 05:28:35;;;;;;;0.60;0.40;;;17.80;59.70;;;;;;5060205;28;20017;-86
2021/05/30 05:31:02;;;;;;;0.70;0.50;;;17.70;59.60;;;;;;5057669;28;20471;-86
2021/05/30 05:33:28;;;;;;;0.60;0.40;;;17.80;59.80;;;;;;5056314;28;20040;-78
2021/05/30 05:35:54;;;;;;;0.63;0.40;;;17.80;59.50;;;;;;5056414;28;20105;-80
2021/05/30 05:38:20;;;;;;;0.90;0.50;;;17.80;59.00;;;;;;5057489;28;20024;-79
2021/05/30 05:40:46;;;;;;;0.68;0.43;;;17.80;59.10;;;;;;5054734;28;20047;-79
2021/05/30 05:43:11;;;;;;;0.80;0.40;;;17.80;59.30;;;;;;5055240;28;20029;-79
2021/05/30 05:45:38;;;;;;;0.70;0.40;;;17.80;59.40;;;;;;5055646;28;20168;-78
2021/05/30 05:48:14;;;;;;;0.90;0.40;;;17.80;59.30;;;;;;5055806;28;20075;-78
2021/05/30 05:50:40;;;;;;;0.60;0.40;;;18.00;58.60;;;;;;5057106;28;20551;-78
2021/05/30 05:53:06;;;;;;;1.60;0.50;;;18.10;58.90;;;;;;5057065;28;20107;-77
2021/05/30 05:55:34;;;;;;;1.20;0.40;;;18.20;59.20;;;;;;5056251;28;20031;-78
2021/05/30 05:58:00;;;;;;;0.63;0.43;;;18.20;59.00;;;;;;5057109;28;20027;-78
2021/05/30 06:00:26;;;;;;;0.73;0.40;;;18.30;58.50;;;;;;5054466;28;20021;-78
2021/05/30 06:02:52;;;;;;;0.77;0.50;;;18.30;57.40;;;;;;5052718;28;20108;-78
2021/05/30 06:05:20;;;;;;;0.50;0.30;;;18.30;57.70;;;;;;5041538;28;20089;-78
2021/05/30 06:07:47;;;;;;;0.77;0.50;;;18.30;57.60;;;;;;5051931;28;20036;-78
2021/05/30 06:10:16;;;;;;;0.85;0.35;;;18.30;58.10;;;;;;5054644;28;20055;-78
2021/05/30 06:12:42;;;;;;;0.77;0.40;;;18.40;57.60;;;;;;5053896;28;20071;-78
2021/05/30 06:15:08;;;;;;;0.60;0.30;;;18.50;57.00;;;;;;5055374;28;20029;-78
2021/05/30 06:17:34;;;;;;;0.52;0.43;;;18.70;56.50;;;;;;5055267;28;20078;-82
2021/05/30 06:20:00;;;;;;;0.45;0.30;;;18.80;56.10;;;;;;5048725;28;20037;-81
2021/05/30 06:22:27;;;;;;;0.40;0.30;;;19.20;55.80;;;;;;5050501;28;20025;-81
2021/05/30 06:24:55;;;;;;;0.40;0.30;;;19.30;55.70;;;;;;5043100;28;20060;-80
2021/05/30 06:27:21;;;;;;;0.35;0.30;;;19.50;53.80;;;;;;5051292;28;20025;-79
2021/05/30 06:29:47;;;;;;;0.40;0.30;;;19.70;54.90;;;;;;5075571;28;20028;-84
2021/05/30 06:32:13;;;;;;;0.38;0.30;;;19.90;53.10;;;;;;5044562;28;20025;-82
2021/05/30 06:34:38;;;;;;;0.45;0.30;;;20.30;52.50;;;;;;5035983;28;20553;-82
2021/05/30 06:37:04;;;;;;;0.40;0.28;;;20.50;51.60;;;;;;5037294;28;20029;-79
2021/05/30 06:39:30;;;;;;;0.30;0.20;;;20.80;50.90;;;;;;5047915;28;20036;-82
2021/05/30 06:41:56;;;;;;;0.50;0.30;;;21.00;50.30;;;;;;5056375;28;20495;-78
2021/05/30 06:44:21;;;;;;;0.60;0.30;;;21.00;49.60;;;;;;5050892;28;20025;-82
2021/05/30 06:46:47;;;;;;;0.47;0.32;;;21.00;49.30;;;;;;5037022;28;20026;-79
2021/05/30 06:49:13;;;;;;;0.60;0.30;;;21.00;49.30;;;;;;5051228;28;20057;-80
2021/05/30 06:51:40;;;;;;;0.40;0.30;;;21.00;48.50;;;;;;5037039;28;20083;-77
2021/05/30 06:54:09;;;;;;;0.60;0.30;;;21.00;48.40;;;;;;5033516;28;20100;-81
2021/05/30 06:56:35;;;;;;;0.50;0.30;;;21.20;49.30;;;;;;5042803;28;20104;-78
2021/05/30 06:59:01;;;;;;;0.73;0.30;;;21.50;48.20;;;;;;5039467;28;20048;-79
2021/05/30 07:01:27;;;;;;;0.40;0.30;;;21.60;48.30;;;;;;5040652;28;20036;-81
2021/05/30 07:03:53;;;;;;;0.52;0.20;;;21.80;47.80;;;;;;5044543;28;20034;-81
2021/05/30 07:06:19;;;;;;;0.47;0.20;;;22.10;46.60;;;;;;5044981;28;20025;-78
2021/05/30 07:08:45;;;;;;;0.43;0.22;;;22.40;46.50;;;;;;5040236;28;20032;-80
2021/05/30 07:11:12;;;;;;;0.70;0.20;;;22.60;46.00;;;;;;5043169;28;20028;-78
2021/05/30 07:13:39;;;;;;;0.30;0.20;;;22.80;45.50;;;;;;5042092;28;20135;-78
2021/05/30 07:16:05;;;;;;;0.30;0.20;;;23.30;44.40;;;;;;5044627;28;20017;-79
2021/05/30 07:18:31;;;;;;;0.30;0.20;;;23.80;43.70;;;;;;5052120;28;20033;-77
2021/05/30 07:20:57;;;;;;;0.30;0.20;;;24.00;42.60;;;;;;5053521;28;20406;-78
2021/05/30 07:23:23;;;;;;;0.22;0.20;;;24.10;41.00;;;;;;5053605;28;20052;-78
2021/05/30 07:25:51;;;;;;;0.40;0.20;;;24.10;42.40;;;;;;5054489;28;20033;-81
2021/05/30 07:28:17;;;;;;;0.65;0.20;;;24.80;40.90;;;;;;5047668;28;20067;-77
2021/05/30 07:30:43;;;;;;;0.30;0.20;;;24.80;40.50;;;;;;5042960;28;20036;-80
2021/05/30 07:33:09;;;;;;;0.30;0.20;;;24.90;40.90;;;;;;5042489;28;20507;-79
2021/05/30 07:35:35;;;;;;;0.38;0.20;;;24.70;41.30;;;;;;5044092;28;20504;-83
2021/05/30 07:38:02;;;;;;;0.50;0.20;;;24.20;42.50;;;;;;5049473;28;20475;-85
2021/05/30 07:40:29;;;;;;;0.50;0.20;;;24.00;43.00;;;;;;5039180;28;20036;-81
2021/05/30 07:42:55;;;;;;;0.35;0.20;;;23.90;42.50;;;;;;5043666;28;20048;-80
2021/05/30 07:45:22;;;;;;;0.30;0.15;;;23.80;43.00;;;;;;5044653;28;20033;-79
2021/05/30 07:47:48;;;;;;;0.52;0.20;;;23.80;43.40;;;;;;5047370;28;20122;-78
2021/05/30 07:50:15;;;;;;;0.22;0.15;;;23.70;42.90;;;;;;5042721;28;20034;-79
2021/05/30 07:52:41;;;;;;;0.50;0.20;;;23.70;43.20;;;;;;5043101;28;20091;-85
2021/05/30 07:55:08;;;;;;;0.32;0.25;;;23.50;44.40;;;;;;5035019;28;20033;-79
2021/05/30 07:57:34;;;;;;;0.50;0.20;;;23.60;43.40;;;;;;5040258;28;20032;-79
2021/05/30 08:00:01;;;;;;;0.30;0.20;;;23.50;43.00;;;;;;5045331;28;20033;-77
2021/05/30 08:02:27;;;;;;;0.30;0.20;;;23.40;41.40;;;;;;5045337;28;20017;-80
2021/05/30 08:04:55;;;;;;;0.10;0.10;;;23.40;43.30;;;;;;5043572;28;20479;-79
2021/05/30 08:07:22;;;;;;;0.25;0.17;;;23.60;43.80;;;;;;5041883;28;20545;-80
2021/05/30 08:09:47;;;;;;;0.30;0.20;;;23.60;44.00;;;;;;5043610;28;20029;-78
2021/05/30 08:12:13;;;;;;;0.32;0.20;;;23.60;43.60;;;;;;5042972;28;20025;-79
2021/05/30 08:14:39;;;;;;;0.17;0.10;;;23.70;43.80;;;;;;5042282;28;20025;-79
2021/05/30 08:17:06;;;;;;;0.30;0.20;;;23.40;42.50;;;;;;5044855;28;20048;-79
2021/05/30 08:19:32;;;;;;;0.30;0.20;;;23.30;44.80;;;;;;5043025;28;20044;-78
2021/05/30 08:21:58;;;;;;;0.40;0.20;;;23.30;44.10;;;;;;5042838;28;20029;-78
2021/05/30 08:24:24;;;;;;;0.15;0.15;;;23.40;44.10;;;;;;5043611;28;20025;-78
2021/05/30 08:26:51;;;;;;;0.40;0.30;;;23.40;44.30;;;;;;5044030;28;20120;-78
2021/05/30 08:29:18;;;;;;;0.47;0.20;;;23.50;44.20;;;;;;5045108;28;20016;-78
2021/05/30 08:31:44;;;;;;;0.30;0.20;;;23.70;43.40;;;;;;5043314;28;20028;-78
2021/05/30 08:34:09;;;;;;;0.35;0.20;;;23.80;43.30;;;;;;5041744;28;20732;-78
2021/05/30 08:36:35;;;;;;;0.55;0.20;;;24.00;43.20;;;;;;5061176;28;20549;-78
2021/05/30 08:39:01;;;;;;;0.50;0.28;;;24.10;42.90;;;;;;5062187;28;20036;-78
2021/05/30 08:41:27;;;;;;;0.15;0.13;;;24.30;43.00;;;;;;5062257;28;20097;-78
2021/05/30 08:43:54;;;;;;;0.73;0.20;;;24.50;42.20;;;;;;5062717;28;20055;-78
2021/05/30 08:46:19;;;;;;;0.30;0.20;;;24.60;42.10;;;;;;5062942;28;20017;-78
2021/05/30 08:48:45;;;;;;;0.25;0.15;;;24.80;42.50;;;;;;5062222;28;20027;-78
2021/05/30 08:51:12;;;;;;;0.10;0.10;;;24.90;40.80;;;;;;5063606;28;20027;-77
2021/05/30 08:53:40;;;;;;;0.40;0.20;;;25.10;40.80;;;;;;5061594;28;20041;-77
2021/05/30 08:56:08;;;;;;;0.22;0.10;;;25.20;40.90;;;;;;5060978;28;20077;-78
2021/05/30 08:58:52;;;;;;;0.32;0.20;;;25.50;40.30;;;;;;5060276;28;20053;-77
2021/05/30 09:01:23;;;;;;;0.20;0.10;;;25.80;39.60;;;;;;5063912;28;20046;-75
2021/05/30 09:03:54;;;;;;;0.17;0.10;;;25.90;38.30;;;;;;5059475;28;20044;-76
2021/05/30 09:06:22;;;;;;;0.35;0.20;;;25.90;39.80;;;;;;5063164;28;20030;-75
2021/05/30 09:08:52;;;;;;;0.30;0.17;;;26.10;37.80;;;;;;5059950;28;20171;-77
2021/05/30 09:11:36;;;;;;;0.30;0.17;;;26.20;38.80;;;;;;5062802;28;20096;-77
2021/05/30 09:14:04;;;;;;;0.20;0.10;;;26.80;38.80;;;;;;5063462;28;20062;-77
2021/05/30 09:17:08;;;;;;;0.47;0.15;;;27.40;37.80;;;;;;5062431;28;20029;-78
2021/05/30 09:19:54;;;;;;;0.25;0.10;;;28.10;36.10;;;;;;5021261;28;20026;-78
2021/05/30 09:22:26;;;;;;;0.10;0.10;;;28.60;36.60;;;;;;5055338;28;20025;-77
2021/05/30 09:24:52;;;;;;;0.17;0.10;;;28.80;35.90;;;;;;5061459;28;20039;-77
2021/05/30 09:27:22;;;;;;;0.20;0.10;;;29.30;35.90;;;;;;5065637;28;20504;-78
2021/05/30 09:30:19;;;;;;;0.40;0.20;;;29.60;35.10;;;;;;5060347;28;20033;-76
2021/05/30 09:33:22;;;;;;;0.65;0.25;;;30.70;33.30;;;;;;5062733;28;20402;-76
2021/05/30 09:35:55;;;;;;;0.45;0.20;;;31.90;31.80;;;;;;5057639;28;20093;-78
2021/05/30 09:38:22;;;;;;;0.28;0.10;;;32.20;28.70;;;;;;5062809;28;20089;-78
2021/05/30 09:40:52;;;;;;;0.68;0.20;;;32.20;30.00;;;;;;5061859;28;20436;-79
2021/05/30 09:43:27;;;;;;;0.40;0.20;;;32.80;30.40;;;;;;5060565;28;20039;-79
2021/05/30 09:46:09;;;;;;;0.20;0.10;;;33.10;30.00;;;;;;5064269;28;20021;-78
2021/05/30 09:48:54;;;;;;;0.20;0.13;;;33.70;28.50;;;;;;5064147;28;20012;-81
2021/05/30 09:51:29;;;;;;;0.20;0.10;;;34.00;29.40;;;;;;5066495;28;20115;-80
2021/05/30 09:54:02;;;;;;;0.17;0.10;;;34.10;27.60;;;;;;5061697;28;20033;-80
2021/05/30 09:56:40;;;;;;;0.43;0.20;;;34.30;27.80;;;;;;5063821;28;20050;-77
2021/05/30 09:59:10;;;;;;;0.35;0.10;;;34.40;28.00;;;;;;5061617;28;20021;-84
2021/05/30 10:01:49;;;;;;;0.17;0.10;;;34.30;25.70;;;;;;5064568;28;20134;-81
2021/05/30 10:04:16;;;;;;;0.28;0.10;;;34.30;25.90;;;;;;5067349;28;20425;-81
2021/05/30 10:06:42;;;;;;;0.20;0.10;;;34.30;27.20;;;;;;5064367;28;20013;-81
2021/05/30 10:09:09;;;;;;;0.30;0.10;;;33.90;27.70;;;;;;5065950;28;20025;-78
2021/05/30 10:11:36;;;;;;;0.22;0.10;;;34.20;28.30;;;;;;5066891;28;20020;-78
2021/05/30 10:14:03;;;;;;;0.30;0.10;;;34.10;27.80;;;;;;5063235;28;20028;-80
2021/05/30 10:16:31;;;;;;;0.30;0.13;;;33.80;28.20;;;;;;5064312;28;20039;-80
2021/05/30 10:19:03;;;;;;;0.10;0.10;;;34.10;28.00;;;;;;5061454;28;20642;-80
2021/05/30 10:21:30;;;;;;;0.45;0.10;;;33.80;27.40;;;;;;5058090;28;20021;-80
2021/05/30 10:23:58;;;;;;;0.35;0.10;;;33.20;27.90;;;;;;5055425;28;20068;-81
2021/05/30 10:26:25;;;;;;;0.10;0.10;;;32.90;27.50;;;;;;5047002;28;20029;-82
2021/05/30 10:29:02;;;;;;;0.90;0.20;;;32.60;28.50;;;;;;5057972;28;20040;-79
2021/05/30 10:31:33;;;;;;;0.40;0.13;;;32.20;29.30;;;;;;5040719;28;20028;-77
2021/05/30 10:34:07;;;;;;;0.20;0.10;;;31.70;29.10;;;;;;5045621;28;20029;-77
2021/05/30 10:36:33;;;;;;;0.13;0.03;;;30.70;29.20;;;;;;5048028;28;20039;-78
2021/05/30 10:38:59;;;;;;;0.30;0.10;;;29.80;30.70;;;;;;5061203;28;20032;-76
2021/05/30 10:41:24;;;;;;;0.10;0.00;;;29.40;32.00;;;;;;5047126;28;20079;-79
2021/05/30 10:43:50;;;;;;;0.08;0.00;;;29.30;32.00;;;;;;5047394;28;20037;-83
2021/05/30 10:46:23;;;;;;;0.10;0.10;;;28.70;33.10;;;;;;5041200;28;20087;-77
2021/05/30 10:49:09;;;;;;;0.40;0.10;;;28.10;32.30;;;;;;5034896;28;20098;-76
2021/05/30 10:51:45;;;;;;;0.13;0.10;;;27.60;33.50;;;;;;5055663;28;20135;-77
2021/05/30 10:54:12;;;;;;;0.50;0.10;;;27.70;36.10;;;;;;5030099;28;20064;-76
2021/05/30 10:56:40;;;;;;;0.30;0.10;;;28.00;35.60;;;;;;5054188;28;20329;-76
2021/05/30 10:59:06;;;;;;;0.22;0.10;;;27.90;33.70;;;;;;5031153;28;20052;-76
2021/05/30 11:01:35;;;;;;;0.17;0.10;;;27.50;33.30;;;;;;5033573;28;20025;-76
2021/05/30 11:04:25;;;;;;;0.10;0.10;;;27.70;34.80;;;;;;5039621;28;20115;-76
2021/05/30 11:06:56;;;;;;;0.35;0.10;;;27.80;33.20;;;;;;5051569;28;20143;-76
2021/05/30 11:09:22;;;;;;;0.08;0.08;;;28.00;34.10;;;;;;5044222;28;20417;-76
2021/05/30 11:12:18;;;;;;;0.10;0.10;;;28.00;32.50;;;;;;5048351;28;20037;-76
2021/05/30 11:15:14;;;;;;;0.20;0.10;;;27.50;34.70;;;;;;5044315;28;20068;-76
2021/05/30 11:17:42;;;;;;;0.17;0.10;;;27.60;33.60;;;;;;5050433;28;20022;-76
2021/05/30 11:20:32;;;;;;;0.43;0.10;;;27.20;32.90;;;;;;5045584;28;20040;-76
2021/05/30 11:23:03;;;;;;;0.10;0.10;;;27.10;32.60;;;;;;5028008;28;20423;-76
2021/05/30 11:25:34;;;;;;;0.20;0.10;;;27.20;34.20;;;;;;5030235;28;20113;-76
2021/05/30 11:28:06;;;;;;;0.15;0.10;;;27.30;36.00;;;;;;5055553;28;20029;-76
2021/05/30 11:30:42;;;;;;;0.43;0.10;;;27.50;34.90;;;;;;5059598;28;20021;-77
2021/05/30 11:33:11;;;;;;;0.55;0.10;;;27.30;32.40;;;;;;5054615;28;20107;-77
2021/05/30 11:35:38;;;;;;;0.00;0.00;;;27.10;32.50;;;;;;5055644;28;20028;-76
2021/05/30 11:38:04;;;;;;;0.10;0.10;;;26.70;32.20;;;;;;5054261;28;20052;-82
2021/05/30 11:40:32;;;;;;;0.10;0.10;;;26.60;34.20;;;;;;5043229;28;20063;-85
2021/05/30 11:43:11;;;;;;;0.10;0.00;;;26.50;32.90;;;;;;5033673;28;20057;-82
2021/05/30 11:45:39;;;;;;;0.20;0.10;;;26.50;33.60;;;;;;5032970;28;20469;-79
2021/05/30 11:48:11;;;;;;;0.20;0.10;;;26.80;35.90;;;;;;5038776;28;20041;-77
2021/05/30 11:50:40;;;;;;;0.20;0.10;;;26.60;35.60;;;;;;5045661;28;20238;-75
2021/05/30 11:53:23;;;;;;;0.20;0.10;;;27.00;33.50;;;;;;5040174;28;20831;-75
2021/05/30 11:55:50;;;;;;;0.10;0.10;;;27.30;35.60;;;;;;5055418;28;20033;-77
2021/05/30 11:58:15;;;;;;;0.10;0.10;;;27.00;33.70;;;;;;5046215;28;20023;-76
2021/05/30 12:00:43;;;;;;;0.00;0.00;;;27.20;34.30;;;;;;5046273;28;20091;-77
2021/05/30 12:03:11;;;;;;;0.10;0.10;;;27.50;30.90;;;;;;5043977;28;20108;-76
2021/05/30 12:05:37;;;;;;;0.28;0.10;;;27.60;32.60;;;;;;5041988;28;20472;-76
2021/05/30 12:08:13;;;;;;;0.55;0.10;;;27.60;33.90;;;;;;5044576;28;20051;-77
2021/05/30 12:10:51;;;;;;;0.10;0.10;;;27.10;31.60;;;;;;5045575;28;20021;-76
2021/05/30 12:13:27;;;;;;;0.00;0.00;;;27.00;32.20;;;;;;5050510;28;20029;-76
2021/05/30 12:15:53;;;;;;;0.20;0.10;;;27.20;35.30;;;;;;5044433;28;20024;-75
2021/05/30 12:18:20;;;;;;;0.10;0.10;;;27.00;31.60;;;;;;5048796;28;20498;-76
2021/05/30 12:20:46;;;;;;;0.10;0.10;;;26.80;32.80;;;;;;5056638;28;20027;-78
2021/05/30 12:23:13;;;;;;;0.10;0.10;;;26.60;34.80;;;;;;5057302;28;20037;-80
2021/05/30 12:25:59;;;;;;;0.20;0.10;;;26.50;33.50;;;;;;5060222;28;20032;-78
2021/05/30 12:28:39;;;;;;;0.08;0.00;;;26.70;35.40;;;;;;5053985;28;20135;-78
2021/05/30 12:31:07;;;;;;;0.10;0.10;;;27.00;36.70;;;;;;5056741;28;20016;-78
2021/05/30 12:34:01;;;;;;;0.00;0.00;;;27.00;32.90;;;;;;5054754;28;20033;-77
2021/05/30 12:36:50;;;;;;;0.00;0.00;;;26.90;31.90;;;;;;5054176;28;20033;-77
2021/05/30 12:39:25;;;;;;;0.13;0.10;;;26.70;33.40;;;;;;5056312;28;20056;-77
2021/05/30 12:41:58;;;;;;;0.10;0.10;;;26.80;33.80;;;;;;5055763;28;20056;-76
2021/05/30 12:44:34;;;;;;;0.32;0.10;;;26.80;34.80;;;;;;5050674;28;20108;-78
2021/05/30 12:47:08;;;;;;;0.10;0.00;;;27.00;33.90;;;;;;5053648;28;20487;-78
2021/05/30 12:49:35;;;;;;;0.00;0.00;;;26.90;33.60;;;;;;5052194;28;20029;-78
2021/05/30 12:52:15;;;;;;;0.13;0.10;;;26.80;34.20;;;;;;5051183;28;20028;-78
2021/05/30 12:54:41;;;;;;;0.03;0.03;;;27.10;33.20;;;;;;5053547;28;20021;-78
2021/05/30 12:57:08;;;;;;;0.10;0.10;;;27.50;33.50;;;;;;5061441;28;20025;-78